createdAt,value
2018-06-13T00:01:44.720Z,79.20
2018-06-13T00:04:13.343Z,79.20
2018-06-13T00:06:41.924Z,79.70
2018-06-13T00:09:10.570Z,79.50
2018-06-13T00:11:39.217Z,80.00
2018-06-13T00:14:07.916Z,79.50
2018-06-13T00:16:36.740Z,79.70
2018-06-13T00:19:05.457Z,79.50
2018-06-13T00:21:34.123Z,79.70
2018-06-13T00:24:02.765Z,79.70
2018-06-13T00:26:31.425Z,79.90
2018-06-13T00:29:00.047Z,80.00
2018-06-13T00:31:28.656Z,79.80
2018-06-13T00:33:57.293Z,80.10
2018-06-13T00:36:25.916Z,80.10
2018-06-13T00:38:54.536Z,79.70
2018-06-13T00:41:23.196Z,80.00
2018-06-13T00:43:51.851Z,79.90
2018-06-13T00:46:20.538Z,80.20
2018-06-13T00:48:49.127Z,80.20
2018-06-13T00:51:17.772Z,80.60
2018-06-13T00:53:46.390Z,80.20
2018-06-13T00:56:26.020Z,80.40
2018-06-13T00:58:54.684Z,80.20
2018-06-13T01:01:23.376Z,80.20
2018-06-13T01:03:52.206Z,80.20
2018-06-13T01:06:20.812Z,80.20
2018-06-13T01:08:49.474Z,80.40
2018-06-13T01:11:18.124Z,80.70
2018-06-13T01:13:46.739Z,81.20
2018-06-13T01:16:15.439Z,81.10
2018-06-13T01:18:44.075Z,80.60
2018-06-13T01:21:12.677Z,80.50
2018-06-13T01:23:41.377Z,80.90
2018-06-13T01:26:09.981Z,81.10
2018-06-13T01:28:38.622Z,81.10
2018-06-13T01:31:07.393Z,80.90
2018-06-13T01:33:36.047Z,81.70
2018-06-13T01:36:04.922Z,81.20
2018-06-13T01:38:33.537Z,80.90
2018-06-13T01:41:02.164Z,81.20
2018-06-13T01:43:30.796Z,81.40
2018-06-13T01:45:59.449Z,82.10
2018-06-13T01:48:28.148Z,81.40
2018-06-13T01:50:57.792Z,81.90
2018-06-13T01:53:27.047Z,82.80
2018-06-13T01:55:55.692Z,82.90
2018-06-13T01:58:24.319Z,82.70
2018-06-13T02:00:52.951Z,82.60
2018-06-13T02:03:24.464Z,83.10
2018-06-13T02:05:55.578Z,82.60
2018-06-13T02:08:26.296Z,82.50
2018-06-13T02:10:54.986Z,82.50
2018-06-13T02:13:23.614Z,82.50
2018-06-13T02:15:52.306Z,82.30
2018-06-13T02:18:20.952Z,82.70
2018-06-13T02:20:49.568Z,82.40
2018-06-13T02:23:18.177Z,82.70
2018-06-13T02:25:46.818Z,83.00
2018-06-13T02:28:15.427Z,82.70
2018-06-13T02:30:44.249Z,83.20
2018-06-13T02:33:12.899Z,83.20
2018-06-13T02:35:41.524Z,84.40
2018-06-13T02:38:10.208Z,83.70
2018-06-13T02:40:38.856Z,83.80
2018-06-13T02:43:07.501Z,83.70
2018-06-13T02:45:36.133Z,83.40
2018-06-13T02:48:04.784Z,83.40
2018-06-13T02:50:33.468Z,83.50
2018-06-13T02:53:02.097Z,83.80
2018-06-13T02:55:30.778Z,83.30
2018-06-13T02:57:59.691Z,83.60
2018-06-13T03:00:28.327Z,83.70
2018-06-13T03:02:56.984Z,84.30
2018-06-13T03:05:25.628Z,84.30
2018-06-13T03:07:54.255Z,84.50
2018-06-13T03:10:22.894Z,84.50
2018-06-13T03:12:51.542Z,84.40
2018-06-13T03:15:20.173Z,84.40
2018-06-13T03:17:48.792Z,84.30
2018-06-13T03:20:17.448Z,84.50
2018-06-13T03:22:46.034Z,84.30
2018-06-13T03:25:14.677Z,84.30
2018-06-13T03:27:43.301Z,84.60
2018-06-13T03:30:11.957Z,85.00
2018-06-13T03:32:40.614Z,84.80
2018-06-13T03:35:09.205Z,85.70
2018-06-13T03:37:37.809Z,85.80
2018-06-13T03:40:06.480Z,86.20
2018-06-13T03:42:35.118Z,86.40
2018-06-13T03:45:03.888Z,86.50
2018-06-13T03:47:32.573Z,86.20
2018-06-13T03:50:01.191Z,86.40
2018-06-13T03:52:29.833Z,86.50
2018-06-13T03:54:58.543Z,86.70
2018-06-13T03:57:27.193Z,86.80
2018-06-13T03:59:55.802Z,86.30
2018-06-13T04:02:24.485Z,86.80
2018-06-13T04:04:53.137Z,86.60
2018-06-13T04:07:21.869Z,86.50
2018-06-13T04:09:50.539Z,87.20
2018-06-13T04:12:19.144Z,87.10
2018-06-13T04:14:47.761Z,87.00
2018-06-13T04:17:16.616Z,86.80
2018-06-13T04:19:45.238Z,86.80
2018-06-13T04:22:13.839Z,86.80
2018-06-13T04:24:42.576Z,87.00
2018-06-13T04:27:11.188Z,87.40
2018-06-13T04:29:39.930Z,87.00
2018-06-13T04:32:08.561Z,86.60
2018-06-13T04:34:37.181Z,86.60
2018-06-13T04:37:05.816Z,86.80
2018-06-13T04:39:34.476Z,86.20
2018-06-13T04:42:03.124Z,86.40
2018-06-13T04:44:31.761Z,86.50
2018-06-13T04:47:00.363Z,85.90
2018-06-13T04:49:29.006Z,86.20
2018-06-13T04:51:57.656Z,86.70
2018-06-13T04:54:26.263Z,86.00
2018-06-13T04:56:54.956Z,86.30
2018-06-13T04:59:23.606Z,86.30
2018-06-13T05:01:52.440Z,86.30
2018-06-13T05:04:21.089Z,86.30
2018-06-13T05:06:49.665Z,86.00
2018-06-13T05:09:18.328Z,85.40
2018-06-13T05:11:46.933Z,85.30
2018-06-13T05:14:15.713Z,85.10
2018-06-13T05:16:44.401Z,85.30
2018-06-13T05:19:13.017Z,84.80
2018-06-13T05:21:41.746Z,84.90
2018-06-13T05:24:10.334Z,85.00
2018-06-13T05:26:39.281Z,85.40
2018-06-13T05:29:07.937Z,84.60
2018-06-13T05:31:36.573Z,84.50
2018-06-13T05:34:05.323Z,84.30
2018-06-13T05:36:33.907Z,84.50
2018-06-13T05:39:02.533Z,83.60
2018-06-13T05:41:31.162Z,83.40
2018-06-13T05:43:59.789Z,83.40
2018-06-13T05:46:28.400Z,83.40
2018-06-13T05:48:57.002Z,83.20
2018-06-13T05:51:25.621Z,83.20
2018-06-13T05:53:54.193Z,83.40
2018-06-13T05:56:22.854Z,83.60
2018-06-13T05:58:51.490Z,83.90
2018-06-13T06:01:20.143Z,83.10
2018-06-13T06:03:48.857Z,83.50
2018-06-13T06:06:17.461Z,83.20
2018-06-13T06:08:46.110Z,82.90
2018-06-13T06:11:14.782Z,83.10
2018-06-13T06:13:43.383Z,82.00
2018-06-13T06:16:12.025Z,81.30
2018-06-13T06:18:40.649Z,81.30
2018-06-13T06:21:09.296Z,81.30
2018-06-13T06:23:37.962Z,81.60
2018-06-13T06:26:06.602Z,80.90
2018-06-13T06:28:35.246Z,81.00
2018-06-13T06:31:04.048Z,81.20
2018-06-13T06:33:32.651Z,80.80
2018-06-13T06:36:01.314Z,80.60
2018-06-13T06:38:30.159Z,80.70
2018-06-13T06:40:58.808Z,80.40
2018-06-13T06:43:27.480Z,80.60
2018-06-13T06:45:56.120Z,80.00
2018-06-13T06:48:24.730Z,80.00
2018-06-13T06:50:53.358Z,79.40
2018-06-13T06:53:21.987Z,80.00
2018-06-13T06:55:50.677Z,79.20
2018-06-13T06:58:19.289Z,80.70
2018-06-13T07:00:47.997Z,80.00
2018-06-13T07:03:16.589Z,79.20
2018-06-13T07:05:45.918Z,78.90
2018-06-13T07:08:14.575Z,78.50
2018-06-13T07:10:43.174Z,74.60
2018-06-13T07:13:11.818Z,73.70
2018-06-13T07:15:40.466Z,73.20
2018-06-13T07:18:09.149Z,75.40
2018-06-13T07:20:37.793Z,74.60
2018-06-13T07:23:06.439Z,74.20
2018-06-13T07:25:35.051Z,73.80
2018-06-13T07:28:03.721Z,71.60
2018-06-13T07:30:32.388Z,70.70
2018-06-13T07:33:01.026Z,70.50
2018-06-13T07:35:29.634Z,70.10
2018-06-13T07:37:58.374Z,71.90
2018-06-13T07:40:27.036Z,71.60
2018-06-13T07:42:55.669Z,71.70
2018-06-13T07:45:24.444Z,70.60
2018-06-13T07:47:53.077Z,68.30
2018-06-13T07:50:21.770Z,68.60
2018-06-13T07:52:50.419Z,68.90
2018-06-13T07:55:19.022Z,69.90
2018-06-13T07:57:47.672Z,70.00
2018-06-13T08:00:16.319Z,70.60
2018-06-13T08:02:44.982Z,70.40
2018-06-13T08:05:13.589Z,70.00
2018-06-13T08:07:42.229Z,70.20
2018-06-13T08:10:10.870Z,70.40
2018-06-13T08:12:39.509Z,70.00
2018-06-13T08:15:08.138Z,70.90
2018-06-13T08:17:36.770Z,70.00
2018-06-13T08:20:05.464Z,71.40
2018-06-13T08:22:34.198Z,71.10
2018-06-13T08:25:02.889Z,71.10
2018-06-13T08:27:31.520Z,68.40
2018-06-13T08:30:00.153Z,68.60
2018-06-13T08:32:29.350Z,70.00
2018-06-13T08:34:57.963Z,68.80
2018-06-13T08:37:26.582Z,68.80
2018-06-13T08:39:55.241Z,68.80
2018-06-13T08:42:23.861Z,68.50
2018-06-13T08:44:52.504Z,68.70
2018-06-13T08:47:21.290Z,68.80
2018-06-13T08:49:49.921Z,70.90
2018-06-13T08:52:18.538Z,69.10
2018-06-13T08:54:47.168Z,70.70
2018-06-13T08:57:15.800Z,69.50
2018-06-13T08:59:44.433Z,69.70
2018-06-13T09:02:13.053Z,70.40
2018-06-13T09:04:41.649Z,70.40
2018-06-13T09:07:10.887Z,68.30
2018-06-13T09:09:39.559Z,70.80
2018-06-13T09:12:08.216Z,70.20
2018-06-13T09:14:36.870Z,70.00
2018-06-13T09:17:05.486Z,69.00
2018-06-13T09:19:34.158Z,69.30
2018-06-13T09:22:02.788Z,68.30
2018-06-13T09:24:31.398Z,66.90
2018-06-13T09:27:00.015Z,66.30
2018-06-13T09:29:28.639Z,66.40
2018-06-13T09:31:57.289Z,65.50
2018-06-13T09:34:25.908Z,67.30
2018-06-13T09:36:54.545Z,66.30
2018-06-13T09:39:23.181Z,68.10
2018-06-13T09:41:57.107Z,67.90
2018-06-13T09:44:25.750Z,65.50
2018-06-13T09:46:54.384Z,64.60
2018-06-13T09:49:23.009Z,64.10
2018-06-13T09:51:51.672Z,65.90
2018-06-13T09:54:20.284Z,65.10
2018-06-13T09:56:48.963Z,63.80
2018-06-13T09:59:19.090Z,63.70
2018-06-13T10:01:53.837Z,62.60
2018-06-13T10:04:22.680Z,61.30
2018-06-13T10:06:51.321Z,59.80
2018-06-13T10:09:20.030Z,60.40
2018-06-13T10:11:48.692Z,59.70
2018-06-13T10:14:17.359Z,59.40
2018-06-13T10:16:45.993Z,61.10
2018-06-13T10:19:14.721Z,60.20
2018-06-13T10:21:43.384Z,60.00
2018-06-13T10:24:12.903Z,60.00
2018-06-13T10:26:41.637Z,61.60
2018-06-13T10:29:10.325Z,60.40
2018-06-13T10:31:39.030Z,60.80
2018-06-13T10:34:07.725Z,60.30
2018-06-13T10:36:36.438Z,60.80
2018-06-13T10:39:07.660Z,60.10
2018-06-13T10:41:36.434Z,60.90
2018-06-13T10:44:05.673Z,61.20
2018-06-13T10:46:34.357Z,59.70
2018-06-13T10:49:02.997Z,61.10
2018-06-13T10:51:31.665Z,60.10
2018-06-13T10:54:00.395Z,62.00
2018-06-13T10:56:29.071Z,62.10
2018-06-13T10:58:57.772Z,63.00
2018-06-13T11:01:26.444Z,63.40
2018-06-13T11:03:55.108Z,61.50
2018-06-13T11:06:23.805Z,61.00
2018-06-13T11:08:52.483Z,58.80
2018-06-13T11:11:21.164Z,61.50
2018-06-13T11:13:49.822Z,59.80
2018-06-13T11:16:18.494Z,61.00
2018-06-13T11:18:47.198Z,58.30
2018-06-13T11:21:15.878Z,59.40
2018-06-13T11:23:44.548Z,59.10
2018-06-13T11:26:13.292Z,58.00
2018-06-13T11:28:41.937Z,58.70
2018-06-13T11:31:10.645Z,58.10
2018-06-13T11:33:39.348Z,58.50
2018-06-13T11:36:07.995Z,57.90
2018-06-13T11:38:36.659Z,57.20
2018-06-13T11:41:05.321Z,56.60
2018-06-13T11:43:33.972Z,58.50
2018-06-13T11:46:02.820Z,57.90
2018-06-13T11:48:31.612Z,58.60
2018-06-13T11:51:00.381Z,58.60
2018-06-13T11:53:29.101Z,59.60
2018-06-13T11:55:57.810Z,59.80
2018-06-13T11:58:26.496Z,57.20
2018-06-13T12:00:55.314Z,54.50
2018-06-13T12:03:24.040Z,55.90
2018-06-13T12:05:52.709Z,55.40
2018-06-13T12:08:21.402Z,55.90
2018-06-13T12:10:50.106Z,55.40
2018-06-13T12:13:19.782Z,55.20
2018-06-13T12:15:48.498Z,55.50
2018-06-13T12:18:17.130Z,56.70
2018-06-13T12:20:45.900Z,54.80
2018-06-13T12:23:14.595Z,56.20
2018-06-13T12:25:43.251Z,57.50
2018-06-13T12:28:11.947Z,56.10
2018-06-13T12:30:40.777Z,55.80
2018-06-13T12:33:09.509Z,56.80
2018-06-13T12:35:38.275Z,54.80
2018-06-13T12:38:06.955Z,55.10
2018-06-13T12:40:35.597Z,54.80
2018-06-13T12:43:04.302Z,51.40
2018-06-13T12:45:33.006Z,51.40
2018-06-13T12:48:01.650Z,51.50
2018-06-13T12:50:30.303Z,51.60
2018-06-13T12:52:58.949Z,51.90
2018-06-13T12:55:27.614Z,53.20
2018-06-13T12:57:56.315Z,52.40
2018-06-13T13:00:25.769Z,52.60
2018-06-13T13:02:54.436Z,53.30
2018-06-13T13:05:23.453Z,54.50
2018-06-13T13:07:52.124Z,50.80
2018-06-13T13:10:20.794Z,52.00
2018-06-13T13:12:49.473Z,51.30
2018-06-13T13:15:18.160Z,52.80
2018-06-13T13:17:46.829Z,51.60
2018-06-13T13:20:15.513Z,51.00
2018-06-13T13:22:44.199Z,50.70
2018-06-13T13:25:12.857Z,51.30
2018-06-13T13:27:41.553Z,51.80
2018-06-13T13:30:10.261Z,51.80
2018-06-13T13:32:39.023Z,52.00
2018-06-13T13:35:07.761Z,50.70
2018-06-13T13:37:36.430Z,49.00
2018-06-13T13:40:05.114Z,49.70
2018-06-13T13:42:33.814Z,51.20
2018-06-13T13:45:02.458Z,49.10
2018-06-13T13:47:31.175Z,47.40
2018-06-13T13:49:59.834Z,50.40
2018-06-13T13:52:28.504Z,49.00
2018-06-13T13:54:57.179Z,47.10
2018-06-13T13:57:25.987Z,49.00
2018-06-13T13:59:54.715Z,51.00
2018-06-13T14:02:23.373Z,48.60
2018-06-13T14:04:52.011Z,50.30
2018-06-13T14:07:20.869Z,49.50
2018-06-13T14:09:49.570Z,49.00
2018-06-13T14:12:18.311Z,47.20
2018-06-13T14:14:46.970Z,47.20
2018-06-13T14:17:15.631Z,46.20
2018-06-13T14:19:44.280Z,46.90
2018-06-13T14:22:13.018Z,48.10
2018-06-13T14:24:41.654Z,49.50
2018-06-13T14:27:10.329Z,48.90
2018-06-13T14:29:39.084Z,50.90
2018-06-13T14:32:07.813Z,52.00
2018-06-13T14:34:36.475Z,51.00
2018-06-13T14:37:05.186Z,51.00
2018-06-13T14:39:33.826Z,53.10
2018-06-13T14:42:02.518Z,50.10
2018-06-13T14:44:31.228Z,48.50
2018-06-13T14:46:59.861Z,49.00
2018-06-13T14:49:28.599Z,48.70
2018-06-13T14:51:57.301Z,50.90
2018-06-13T14:54:25.960Z,50.20
2018-06-13T14:56:54.608Z,50.80
2018-06-13T14:59:23.244Z,51.10
2018-06-13T15:01:51.888Z,49.00
2018-06-13T15:04:29.245Z,49.80
2018-06-13T15:06:57.905Z,50.10
2018-06-13T15:09:26.546Z,49.90
2018-06-13T15:11:55.416Z,49.40
2018-06-13T15:14:24.048Z,50.70
2018-06-13T15:16:52.684Z,50.60
2018-06-13T15:19:21.341Z,52.30
2018-06-13T15:21:49.935Z,51.90
2018-06-13T15:24:18.591Z,52.70
2018-06-13T15:26:47.303Z,52.50
2018-06-13T15:29:15.927Z,51.70
2018-06-13T15:31:44.620Z,51.20
2018-06-13T15:34:13.245Z,51.40
2018-06-13T15:36:41.858Z,52.10
2018-06-13T15:39:14.137Z,52.70
2018-06-13T15:41:43.833Z,54.30
2018-06-13T15:44:14.615Z,52.70
2018-06-13T15:46:43.266Z,52.00
2018-06-13T15:49:11.955Z,51.70
2018-06-13T15:51:41.288Z,51.90
2018-06-13T15:54:10.266Z,51.00
2018-06-13T15:56:39.892Z,51.70
2018-06-13T15:59:08.898Z,52.60
2018-06-13T16:01:37.634Z,52.60
2018-06-13T16:04:06.300Z,52.90
2018-06-13T16:06:34.955Z,52.60
2018-06-13T16:09:04.449Z,54.00
2018-06-13T16:11:33.074Z,53.20
2018-06-13T16:14:01.711Z,53.40
2018-06-13T16:16:30.368Z,54.30
2018-06-13T16:18:59.057Z,54.80
2018-06-13T16:21:28.082Z,54.40
2018-06-13T16:23:56.825Z,55.00
2018-06-13T16:26:25.449Z,54.80
2018-06-13T16:28:54.085Z,55.10
2018-06-13T16:31:22.711Z,54.20
2018-06-13T16:33:51.376Z,55.10
2018-06-13T16:36:20.000Z,57.20
2018-06-13T16:38:48.710Z,55.90
2018-06-13T16:41:17.349Z,55.50
2018-06-13T16:43:45.999Z,57.20
2018-06-13T16:46:14.714Z,56.00
2018-06-13T16:48:43.351Z,55.10
2018-06-13T16:51:23.161Z,54.60
2018-06-13T16:54:03.963Z,54.40
2018-06-13T16:56:32.676Z,53.70
2018-06-13T16:59:01.317Z,54.20
2018-06-13T17:01:29.945Z,54.20
2018-06-13T17:03:58.581Z,55.00
2018-06-13T17:06:27.179Z,56.00
2018-06-13T17:08:55.805Z,54.40
2018-06-13T17:11:24.435Z,53.80
2018-06-13T17:13:53.056Z,54.30
2018-06-13T17:16:21.693Z,54.30
2018-06-13T17:18:50.313Z,54.90
2018-06-13T17:21:19.044Z,56.60
2018-06-13T17:23:47.637Z,55.70
2018-06-13T17:26:16.267Z,56.30
2018-06-13T17:28:44.940Z,55.60
2018-06-13T17:31:13.549Z,55.70
2018-06-13T17:33:42.174Z,55.30
2018-06-13T17:36:11.127Z,55.70
2018-06-13T17:38:39.754Z,56.70
2018-06-13T17:41:08.526Z,56.20
2018-06-13T17:43:37.173Z,55.20
2018-06-13T17:46:06.055Z,54.60
2018-06-13T17:48:34.730Z,55.50
2018-06-13T17:51:03.423Z,54.90
2018-06-13T17:53:32.137Z,55.20
2018-06-13T17:56:00.756Z,55.30
2018-06-13T17:58:29.478Z,55.30
2018-06-13T18:00:58.095Z,54.70
2018-06-13T18:03:26.958Z,55.50
2018-06-13T18:05:55.595Z,56.00
2018-06-13T18:08:24.323Z,56.50
2018-06-13T18:10:53.022Z,54.90
2018-06-13T18:13:25.934Z,55.80
2018-06-13T18:15:54.614Z,56.10
2018-06-13T18:18:25.059Z,57.70
2018-06-13T18:20:53.678Z,58.00
2018-06-13T18:23:22.415Z,58.00
2018-06-13T18:25:57.534Z,57.80
2018-06-13T18:28:26.214Z,58.20
2018-06-13T18:30:54.911Z,58.00
2018-06-13T18:33:23.561Z,57.80
2018-06-13T18:35:52.199Z,56.90
2018-06-13T18:38:20.861Z,56.50
2018-06-13T18:40:49.678Z,56.50
2018-06-13T18:43:18.309Z,57.00
2018-06-13T18:45:46.998Z,58.40
2018-06-13T18:48:15.681Z,56.60
2018-06-13T18:50:44.310Z,58.50
2018-06-13T18:53:13.168Z,58.20
2018-06-13T18:55:42.346Z,57.30
2018-06-13T19:01:01.631Z,60.10
2018-06-13T19:03:30.328Z,61.60
2018-06-13T19:05:59.122Z,62.20
2018-06-13T19:08:27.797Z,58.60
2018-06-13T19:10:56.407Z,59.80
2018-06-13T19:13:25.241Z,59.10
2018-06-13T19:15:53.833Z,59.30
2018-06-13T19:18:22.520Z,59.80
2018-06-13T19:20:51.180Z,60.00
2018-06-13T19:23:19.857Z,61.80
2018-06-13T19:25:48.579Z,61.20
2018-06-13T19:28:17.234Z,61.70
2018-06-13T19:30:45.993Z,64.70
2018-06-13T19:33:14.735Z,65.10
2018-06-13T19:35:44.105Z,65.90
2018-06-13T19:38:12.877Z,66.30
2018-06-13T19:40:41.534Z,63.90
2018-06-13T19:43:15.502Z,63.20
2018-06-13T19:45:44.191Z,63.30
2018-06-13T19:48:19.251Z,65.20
2018-06-13T19:50:47.863Z,66.60
2018-06-13T19:53:21.751Z,65.50
2018-06-13T19:55:55.469Z,66.80
2018-06-13T19:58:24.334Z,66.40
2018-06-13T20:00:53.052Z,67.20
2018-06-13T20:03:26.784Z,67.80
2018-06-13T20:05:55.454Z,68.70
2018-06-13T20:08:24.049Z,69.40
2018-06-13T20:10:52.815Z,69.80
2018-06-13T20:13:26.764Z,70.10
2018-06-13T20:16:00.601Z,70.60
2018-06-13T20:18:34.464Z,70.70
2018-06-13T20:21:03.128Z,71.20
2018-06-13T20:23:31.817Z,71.60
2018-06-13T20:26:05.761Z,72.00
2018-06-13T20:28:39.729Z,72.70
2018-06-13T20:31:14.529Z,73.70
2018-06-13T20:33:43.227Z,74.60
2018-06-13T20:36:11.846Z,74.40
2018-06-13T20:38:40.492Z,75.30
2018-06-13T20:41:09.176Z,76.10
2018-06-13T20:43:37.972Z,76.80
2018-06-13T20:46:06.596Z,78.10
2018-06-13T20:48:35.225Z,79.20
2018-06-13T20:51:04.036Z,80.00
2018-06-13T20:53:32.692Z,80.70
2018-06-13T20:56:01.481Z,81.00
2018-06-13T20:58:30.095Z,81.20
2018-06-13T21:00:58.754Z,81.70
2018-06-13T21:03:27.404Z,82.30
2018-06-13T21:05:56.045Z,82.90
2018-06-13T21:08:24.722Z,83.20
2018-06-13T21:10:53.324Z,83.10
2018-06-13T21:13:21.971Z,82.50
2018-06-13T21:15:50.609Z,82.30
2018-06-13T21:18:19.282Z,81.80
2018-06-13T21:20:47.911Z,81.50
2018-06-13T21:23:16.532Z,80.90
2018-06-13T21:25:45.146Z,80.60
2018-06-13T21:28:13.764Z,80.40
2018-06-13T21:30:42.422Z,80.30
2018-06-13T21:33:11.212Z,80.40
2018-06-13T21:35:39.857Z,80.30
2018-06-13T21:38:08.525Z,80.40
2018-06-13T21:40:37.166Z,80.60
2018-06-13T21:43:05.832Z,81.00
2018-06-13T21:45:34.494Z,81.50
2018-06-13T21:48:03.210Z,81.50
2018-06-13T21:50:31.817Z,81.30
2018-06-13T21:53:00.445Z,81.30
2018-06-13T21:55:29.051Z,81.20
2018-06-13T21:57:57.713Z,81.20
2018-06-13T22:00:26.417Z,81.10
2018-06-13T22:02:55.081Z,81.10
2018-06-13T22:05:23.721Z,81.30
2018-06-13T22:07:52.298Z,81.50
2018-06-13T22:10:20.945Z,81.90
2018-06-13T22:12:49.568Z,82.40
2018-06-13T22:15:23.730Z,82.30
2018-06-13T22:17:52.930Z,83.00
2018-06-13T22:20:21.647Z,82.30
2018-06-13T22:22:50.418Z,82.30
2018-06-13T22:25:19.297Z,82.30
2018-06-13T22:27:47.896Z,82.30
2018-06-13T22:30:16.770Z,84.70
2018-06-13T22:32:45.625Z,85.20
2018-06-13T22:35:14.296Z,84.90
2018-06-13T22:37:43.160Z,84.30
2018-06-13T22:40:11.748Z,84.10
2018-06-13T22:42:40.422Z,83.90
2018-06-13T22:45:09.019Z,83.70
2018-06-13T22:47:37.628Z,83.60
2018-06-13T22:50:06.328Z,83.50
2018-06-13T22:52:35.094Z,83.30
2018-06-13T22:55:03.792Z,84.40
2018-06-13T22:57:32.493Z,85.30
2018-06-13T23:00:01.132Z,85.80
2018-06-13T23:02:29.748Z,87.00
2018-06-13T23:04:58.328Z,88.10
2018-06-13T23:07:26.929Z,88.40
2018-06-13T23:09:55.581Z,88.70
2018-06-13T23:12:24.190Z,88.20
2018-06-13T23:14:52.822Z,88.00
2018-06-13T23:17:21.420Z,87.40
2018-06-13T23:19:50.129Z,87.80
2018-06-13T23:22:18.704Z,88.10
2018-06-13T23:24:47.353Z,87.70
2018-06-13T23:27:16.223Z,87.10
2018-06-13T23:29:44.807Z,86.70
2018-06-13T23:32:13.380Z,86.20
2018-06-13T23:34:42.018Z,86.00
2018-06-13T23:37:10.624Z,85.80
2018-06-13T23:39:39.277Z,85.50
2018-06-13T23:42:07.892Z,85.40
2018-06-13T23:44:36.496Z,85.40
2018-06-13T23:47:05.137Z,85.50
2018-06-13T23:49:33.755Z,85.30
2018-06-13T23:52:02.409Z,85.30
2018-06-13T23:54:31.017Z,85.60
2018-06-13T23:56:59.653Z,85.80
2018-06-13T23:59:28.274Z,85.60
